createdAt,value
2016-12-03T19:41:58.592Z,0.73
2016-12-03T19:44:47.844Z,0.32
2016-12-03T19:47:41.896Z,0.67
2016-12-03T19:50:35.986Z,0.98
2016-12-03T19:53:30.967Z,1.20
2016-12-03T19:56:24.156Z,1.35
2016-12-03T19:59:18.220Z,1.38
2016-12-03T20:02:12.399Z,1.34
2016-12-03T20:05:06.438Z,1.35
2016-12-03T20:08:00.666Z,1.35
2016-12-03T20:10:54.662Z,1.43
2016-12-03T20:13:48.655Z,1.44
2016-12-03T20:16:42.688Z,1.49
2016-12-03T20:19:36.787Z,1.53
2016-12-03T20:22:31.088Z,1.57
2016-12-03T20:25:25.171Z,1.60
2016-12-03T20:28:19.213Z,1.64
2016-12-03T20:31:13.306Z,1.64
2016-12-03T20:34:07.256Z,1.64
2016-12-03T20:37:01.317Z,1.67
2016-12-03T20:39:55.421Z,1.70
2016-12-03T20:42:50.064Z,1.72
2016-12-03T20:45:44.279Z,1.71
2016-12-03T20:48:38.482Z,1.72
2016-12-03T20:51:32.567Z,1.72
2016-12-03T20:54:26.674Z,1.68
2016-12-03T20:57:21.699Z,1.70
2016-12-03T21:00:14.777Z,1.75
2016-12-03T21:03:08.882Z,1.77
2016-12-03T21:06:02.924Z,1.74
2016-12-03T21:08:58.067Z,1.69
2016-12-03T21:11:51.233Z,1.67
2016-12-03T21:20:34.460Z,1.58
2016-12-03T21:23:28.163Z,1.58
2016-12-03T21:26:22.211Z,1.56
2016-12-03T21:29:16.213Z,1.51
2016-12-03T21:32:10.452Z,1.46
2016-12-03T21:40:53.104Z,1.40
2016-12-03T21:52:29.101Z,1.50
2016-12-03T21:55:23.896Z,1.50
2016-12-03T21:58:17.214Z,1.52
2016-12-03T22:04:06.816Z,1.51
2016-12-03T22:09:54.346Z,1.49
2016-12-03T22:12:48.496Z,1.51
2016-12-03T22:15:42.505Z,1.52
2016-12-03T22:18:37.112Z,1.50
2016-12-03T22:21:31.155Z,1.43
2016-12-03T22:27:19.125Z,1.39
2016-12-03T22:30:13.215Z,1.29
2016-12-03T22:36:01.444Z,1.36
2016-12-03T22:38:55.488Z,1.38
2016-12-03T22:41:49.561Z,1.38
2016-12-03T22:44:44.648Z,1.41
2016-12-03T22:47:37.670Z,1.43
2016-12-03T22:50:32.331Z,1.41
2016-12-03T22:53:27.338Z,1.37
2016-12-03T22:56:20.824Z,1.38
2016-12-03T22:59:14.482Z,1.38
2016-12-03T23:02:08.600Z,1.36
2016-12-03T23:05:03.487Z,1.36
2016-12-03T23:07:57.008Z,1.27
2016-12-03T23:16:40.085Z,1.23
2016-12-03T23:19:33.047Z,1.24
2016-12-03T23:22:27.127Z,1.24
2016-12-03T23:25:21.215Z,1.22
2016-12-03T23:28:15.243Z,1.18
2016-12-03T23:31:10.305Z,1.14
2016-12-03T23:34:03.239Z,1.07
2016-12-03T23:36:57.284Z,1.06
2016-12-03T23:54:21.350Z,1.01
2016-12-03T23:57:15.402Z,0.99
